createdAt,value
2022-07-31T00:00:21.939Z,5.23
2022-07-31T00:02:24.534Z,5.80
2022-07-31T00:04:28.415Z,5.60
2022-07-31T00:06:31.018Z,5.60
2022-07-31T00:08:33.905Z,5.73
2022-07-31T00:10:36.637Z,6.00
2022-07-31T00:12:39.187Z,5.67
2022-07-31T00:14:41.831Z,5.17
2022-07-31T00:16:44.437Z,5.20
2022-07-31T00:18:47.096Z,6.83
2022-07-31T00:20:49.705Z,6.00
2022-07-31T00:22:52.318Z,5.97
2022-07-31T00:24:54.911Z,6.23
2022-07-31T00:26:57.550Z,6.30
2022-07-31T00:29:00.174Z,5.70
2022-07-31T00:31:03.558Z,4.83
2022-07-31T00:33:06.964Z,6.30
2022-07-31T00:35:12.517Z,5.70
2022-07-31T00:37:15.917Z,5.03
2022-07-31T00:39:18.691Z,4.50
2022-07-31T00:41:22.669Z,5.00
2022-07-31T00:43:27.483Z,4.73
2022-07-31T00:45:33.425Z,5.20
2022-07-31T00:47:37.392Z,4.43
2022-07-31T00:49:42.038Z,4.97
2022-07-31T00:51:44.692Z,6.07
2022-07-31T00:53:47.271Z,6.10
2022-07-31T00:55:51.908Z,6.20
2022-07-31T00:57:54.933Z,5.23
2022-07-31T00:59:58.261Z,6.20
2022-07-31T01:02:00.932Z,5.20
2022-07-31T01:04:03.882Z,5.57
2022-07-31T01:06:07.578Z,4.90
2022-07-31T01:08:10.652Z,5.17
2022-07-31T01:10:19.639Z,5.40
2022-07-31T01:12:30.462Z,4.83
2022-07-31T01:14:40.505Z,5.47
2022-07-31T01:16:48.917Z,5.47
2022-07-31T01:18:55.839Z,5.90
2022-07-31T01:21:04.683Z,6.13
2022-07-31T01:23:26.122Z,6.90
2022-07-31T01:26:43.407Z,6.03
2022-07-31T01:29:16.652Z,6.70
2022-07-31T01:31:27.606Z,6.50
2022-07-31T01:33:41.672Z,6.20
2022-07-31T01:35:54.285Z,7.33
2022-07-31T01:38:15.099Z,6.90
2022-07-31T01:40:26.599Z,6.07
2022-07-31T01:42:30.955Z,6.47
2022-07-31T01:44:43.499Z,6.83
2022-07-31T01:46:48.693Z,5.87
2022-07-31T01:48:56.442Z,6.10
2022-07-31T01:51:02.857Z,6.10
2022-07-31T01:53:06.861Z,6.97
2022-07-31T01:55:11.473Z,6.70
2022-07-31T01:57:18.564Z,6.55
2022-07-31T01:59:28.039Z,5.57
2022-07-31T02:01:47.716Z,6.10
2022-07-31T02:03:56.487Z,6.70
2022-07-31T02:06:01.083Z,5.97
2022-07-31T02:08:08.573Z,6.20
2022-07-31T02:10:18.114Z,7.10
2022-07-31T02:12:32.298Z,6.80
2022-07-31T02:14:36.659Z,6.70
2022-07-31T02:16:39.372Z,6.70
2022-07-31T02:18:54.517Z,6.87
2022-07-31T02:20:59.576Z,6.87
2022-07-31T02:23:02.332Z,6.80
2022-07-31T02:25:08.649Z,6.80
2022-07-31T02:27:57.008Z,6.40
2022-07-31T02:29:35.958Z,6.03
2022-07-31T02:31:39.307Z,5.23
2022-07-31T02:33:45.221Z,6.17
2022-07-31T02:35:54.961Z,6.10
2022-07-31T02:37:58.290Z,5.10
2022-07-31T02:40:02.639Z,5.80
2022-07-31T02:42:06.203Z,7.70
2022-07-31T02:44:12.083Z,8.63
2022-07-31T02:46:15.276Z,7.60
2022-07-31T02:48:18.148Z,6.67
2022-07-31T02:50:25.424Z,6.90
2022-07-31T02:52:30.220Z,6.60
2022-07-31T02:54:36.931Z,6.53
2022-07-31T02:56:40.332Z,6.70
2022-07-31T02:58:43.096Z,7.30
2022-07-31T03:01:05.449Z,6.20
2022-07-31T03:03:09.506Z,6.50
2022-07-31T03:05:12.177Z,5.87
2022-07-31T03:07:17.576Z,5.50
2022-07-31T03:09:22.004Z,5.60
2022-07-31T03:11:31.920Z,6.90
2022-07-31T03:13:36.954Z,6.30
2022-07-31T03:15:43.928Z,6.77
2022-07-31T03:17:55.010Z,6.20
2022-07-31T03:20:09.322Z,7.37
2022-07-31T03:22:15.292Z,8.87
2022-07-31T03:24:19.044Z,10.53
2022-07-31T03:26:21.974Z,9.85
2022-07-31T03:28:24.703Z,10.47
2022-07-31T03:30:27.324Z,9.57
2022-07-31T03:32:32.272Z,9.53
2022-07-31T03:34:35.446Z,8.80
2022-07-31T03:36:38.711Z,8.03
2022-07-31T03:38:43.967Z,8.10
2022-07-31T03:41:00.542Z,7.57
2022-07-31T03:43:04.559Z,7.97
2022-07-31T03:45:09.840Z,6.80
2022-07-31T03:47:12.591Z,7.80
2022-07-31T03:49:15.687Z,6.87
2022-07-31T03:51:19.584Z,6.60
2022-07-31T03:53:23.090Z,6.37
2022-07-31T03:55:26.374Z,6.80
2022-07-31T03:57:31.386Z,6.90
2022-07-31T03:59:40.765Z,6.00
2022-07-31T04:01:58.167Z,6.60
2022-07-31T04:04:27.696Z,6.30
2022-07-31T04:06:36.060Z,6.40
2022-07-31T04:08:39.261Z,5.65
2022-07-31T04:10:42.131Z,6.87
2022-07-31T04:12:48.577Z,6.37
2022-07-31T04:14:52.734Z,5.45
2022-07-31T04:16:55.463Z,5.80
2022-07-31T04:18:59.470Z,6.17
2022-07-31T04:21:02.069Z,5.30
2022-07-31T04:23:04.739Z,5.30
2022-07-31T04:25:48.192Z,6.90
2022-07-31T04:28:05.711Z,7.20
2022-07-31T04:30:09.635Z,7.38
2022-07-31T04:32:13.125Z,5.50
2022-07-31T04:34:27.260Z,6.07
2022-07-31T04:36:30.933Z,6.40
2022-07-31T04:38:35.973Z,6.17
2022-07-31T04:40:38.979Z,6.50
2022-07-31T04:42:41.722Z,6.60
2022-07-31T04:44:45.259Z,6.30
2022-07-31T04:46:48.381Z,6.97
2022-07-31T04:48:51.377Z,6.57
2022-07-31T04:50:54.149Z,6.37
2022-07-31T04:52:56.785Z,7.07
2022-07-31T04:55:00.510Z,7.20
2022-07-31T04:57:03.787Z,7.40
2022-07-31T04:59:20.569Z,7.33
2022-07-31T05:01:23.848Z,7.30
2022-07-31T05:03:26.471Z,7.50
2022-07-31T05:05:29.086Z,8.40
2022-07-31T05:07:31.848Z,9.20
2022-07-31T05:09:37.165Z,7.77
2022-07-31T05:11:43.240Z,7.60
2022-07-31T05:13:45.960Z,6.67
2022-07-31T05:15:48.706Z,6.90
2022-07-31T05:17:51.734Z,7.73
2022-07-31T05:20:13.290Z,7.63
2022-07-31T05:22:38.707Z,7.47
2022-07-31T05:24:51.561Z,6.20
2022-07-31T05:26:54.506Z,8.03
2022-07-31T05:28:58.767Z,6.60
2022-07-31T05:31:02.411Z,6.87
2022-07-31T05:33:06.939Z,10.10
2022-07-31T05:35:10.007Z,9.17
2022-07-31T05:37:12.895Z,8.97
2022-07-31T05:39:20.387Z,7.90
2022-07-31T05:41:41.973Z,7.90
2022-07-31T05:44:03.750Z,7.55
2022-07-31T05:46:14.209Z,6.77
2022-07-31T05:48:17.295Z,7.50
2022-07-31T05:50:20.129Z,7.10
2022-07-31T05:52:22.733Z,8.70
2022-07-31T05:54:52.882Z,8.03
2022-07-31T05:57:34.184Z,6.90
2022-07-31T05:59:38.321Z,7.57
2022-07-31T06:01:41.145Z,7.93
2022-07-31T06:03:51.909Z,7.20
2022-07-31T06:06:27.438Z,7.80
2022-07-31T06:08:30.611Z,7.83
2022-07-31T06:10:33.568Z,7.18
2022-07-31T06:12:36.128Z,7.37
2022-07-31T06:14:39.817Z,6.80
2022-07-31T06:16:49.753Z,6.87
2022-07-31T06:18:53.158Z,8.30
2022-07-31T06:20:56.064Z,7.10
2022-07-31T06:22:58.959Z,7.13
2022-07-31T06:25:08.854Z,6.50
2022-07-31T06:27:33.593Z,6.60
2022-07-31T06:29:41.134Z,6.13
2022-07-31T06:31:46.387Z,6.45
2022-07-31T06:33:52.910Z,6.33
2022-07-31T06:35:59.537Z,5.90
2022-07-31T06:38:16.974Z,5.00
2022-07-31T06:40:43.634Z,5.80
2022-07-31T06:43:06.322Z,5.80
2022-07-31T06:45:51.421Z,6.00
2022-07-31T06:48:15.519Z,5.20
2022-07-31T06:50:22.782Z,5.30
2022-07-31T06:52:35.631Z,5.87
2022-07-31T06:54:39.722Z,5.40
2022-07-31T06:56:42.422Z,5.57
2022-07-31T06:58:45.031Z,6.20
2022-07-31T07:00:48.035Z,5.73
2022-07-31T07:02:52.408Z,4.90
2022-07-31T07:04:56.442Z,4.80
2022-07-31T07:07:09.240Z,6.03
2022-07-31T07:09:11.880Z,5.23
2022-07-31T07:11:15.037Z,5.53
2022-07-31T07:13:17.757Z,5.80
2022-07-31T07:15:20.380Z,5.65
2022-07-31T07:17:25.966Z,5.00
2022-07-31T07:19:32.664Z,5.23
2022-07-31T07:21:35.413Z,6.20
2022-07-31T07:23:38.202Z,5.97
2022-07-31T07:25:56.960Z,6.30
2022-07-31T07:28:00.675Z,5.73
2022-07-31T07:30:04.870Z,5.40
2022-07-31T07:32:07.508Z,5.33
2022-07-31T07:34:10.181Z,6.67
2022-07-31T07:36:23.736Z,5.27
2022-07-31T07:38:47.366Z,5.30
2022-07-31T07:40:51.735Z,5.50
2022-07-31T07:42:54.361Z,4.73
2022-07-31T07:44:57.471Z,5.70
2022-07-31T07:47:01.069Z,5.17
2022-07-31T07:49:05.119Z,6.20
2022-07-31T07:51:10.400Z,5.30
2022-07-31T07:53:23.671Z,5.80
2022-07-31T07:55:52.199Z,5.33
2022-07-31T07:58:13.480Z,4.60
2022-07-31T08:00:54.826Z,5.30
2022-07-31T08:03:47.274Z,4.50
2022-07-31T08:05:20.338Z,4.65
2022-07-31T08:07:42.235Z,5.53
2022-07-31T08:10:06.821Z,5.00
2022-07-31T08:12:21.775Z,5.30
2022-07-31T08:14:42.592Z,4.30
2022-07-31T08:17:05.436Z,5.37
2022-07-31T08:19:08.233Z,4.70
2022-07-31T08:21:11.112Z,4.27
2022-07-31T08:23:18.328Z,4.60
2022-07-31T08:25:21.063Z,3.67
2022-07-31T08:27:39.251Z,4.90
2022-07-31T08:29:45.433Z,4.43
2022-07-31T08:31:52.119Z,4.80
2022-07-31T08:34:30.558Z,4.00
2022-07-31T08:36:35.880Z,5.20
2022-07-31T08:38:39.516Z,4.73
2022-07-31T08:41:02.136Z,5.47
2022-07-31T08:43:19.335Z,5.00
2022-07-31T08:45:28.916Z,4.30
2022-07-31T08:47:49.164Z,6.00
2022-07-31T08:49:59.669Z,4.20
2022-07-31T08:52:03.246Z,4.97
2022-07-31T08:54:12.187Z,5.37
2022-07-31T08:56:15.336Z,4.80
2022-07-31T08:58:20.068Z,4.40
2022-07-31T09:00:23.088Z,4.83
2022-07-31T09:02:25.855Z,5.47
2022-07-31T09:04:52.125Z,5.20
2022-07-31T09:06:58.358Z,4.93
2022-07-31T09:09:01.176Z,4.90
2022-07-31T09:11:09.331Z,4.20
2022-07-31T09:13:18.053Z,4.80
2022-07-31T09:15:26.965Z,5.07
2022-07-31T09:17:36.741Z,5.20
2022-07-31T09:19:52.508Z,5.00
2022-07-31T09:22:01.567Z,5.23
2022-07-31T09:24:04.888Z,5.63
2022-07-31T09:26:07.748Z,5.97
2022-07-31T09:28:10.516Z,5.77
2022-07-31T09:30:15.380Z,5.40
2022-07-31T09:32:38.300Z,5.60
2022-07-31T09:34:48.211Z,5.20
2022-07-31T09:36:53.206Z,5.93
2022-07-31T09:39:27.848Z,5.77
2022-07-31T09:41:56.671Z,5.77
2022-07-31T09:44:40.522Z,5.90
2022-07-31T09:46:46.434Z,5.93
2022-07-31T09:48:59.851Z,5.80
2022-07-31T09:51:07.809Z,5.00
2022-07-31T09:53:10.594Z,5.70
2022-07-31T09:55:16.881Z,5.20
2022-07-31T09:57:25.019Z,4.63
2022-07-31T09:59:31.668Z,4.30
2022-07-31T10:01:36.568Z,5.10
2022-07-31T10:03:41.332Z,5.10
2022-07-31T10:05:45.733Z,5.70
2022-07-31T10:07:49.073Z,5.83
2022-07-31T10:09:58.585Z,6.13
2022-07-31T10:12:20.759Z,4.77
2022-07-31T10:14:31.402Z,5.63
2022-07-31T10:16:39.913Z,5.70
2022-07-31T10:19:12.137Z,6.10
2022-07-31T10:21:44.643Z,4.70
2022-07-31T10:23:53.675Z,5.30
2022-07-31T10:26:01.991Z,5.00
2022-07-31T10:28:07.553Z,5.20
2022-07-31T10:30:11.030Z,4.40
2022-07-31T10:32:18.784Z,5.50
2022-07-31T10:34:47.784Z,4.83
2022-07-31T10:37:23.221Z,4.07
2022-07-31T10:40:11.000Z,4.30
2022-07-31T10:43:03.251Z,5.50
2022-07-31T10:45:14.136Z,3.90
2022-07-31T10:47:35.806Z,4.30
2022-07-31T10:49:48.871Z,4.30
2022-07-31T10:52:11.689Z,4.20
2022-07-31T10:54:46.176Z,4.40
2022-07-31T10:57:07.787Z,5.00
2022-07-31T10:59:44.898Z,5.20
2022-07-31T11:02:35.117Z,5.50
2022-07-31T11:05:11.608Z,5.33
2022-07-31T11:07:32.822Z,4.40
2022-07-31T11:09:50.721Z,5.17
2022-07-31T11:12:26.601Z,5.43
2022-07-31T11:14:44.627Z,4.90
2022-07-31T11:17:06.329Z,5.17
2022-07-31T11:19:16.547Z,4.90
2022-07-31T11:21:38.854Z,4.63
2022-07-31T11:23:42.095Z,4.33
2022-07-31T11:26:07.278Z,4.90
2022-07-31T11:28:19.114Z,4.03
2022-07-31T11:30:21.910Z,4.43
2022-07-31T11:32:25.480Z,5.43
2022-07-31T11:34:28.943Z,4.37
2022-07-31T11:36:31.631Z,4.03
2022-07-31T11:38:34.843Z,4.17
2022-07-31T11:40:38.617Z,5.30
2022-07-31T11:42:46.363Z,4.50
2022-07-31T11:44:51.806Z,4.87
2022-07-31T11:46:55.151Z,4.90
2022-07-31T11:48:58.564Z,4.28
2022-07-31T11:51:01.439Z,4.30
2022-07-31T11:53:07.084Z,4.70
2022-07-31T11:55:14.746Z,4.90
2022-07-31T11:57:17.420Z,4.77
2022-07-31T11:59:45.631Z,4.90
2022-07-31T12:01:50.273Z,3.90
2022-07-31T12:03:53.231Z,4.20
2022-07-31T12:05:56.406Z,5.20
2022-07-31T12:07:59.454Z,3.90
2022-07-31T12:10:06.001Z,4.07
2022-07-31T12:12:11.814Z,4.73
2022-07-31T12:14:14.454Z,4.10
2022-07-31T12:16:18.879Z,3.97
2022-07-31T12:18:21.886Z,4.80
2022-07-31T12:20:34.934Z,4.27
2022-07-31T12:22:38.308Z,3.97
2022-07-31T12:24:41.158Z,3.87
2022-07-31T12:26:53.438Z,3.10
2022-07-31T12:29:07.832Z,3.50
2022-07-31T12:31:10.500Z,3.70
2022-07-31T12:33:14.265Z,4.00
2022-07-31T12:35:16.950Z,3.30
2022-07-31T12:37:21.887Z,3.40
2022-07-31T12:39:24.479Z,3.47
2022-07-31T12:41:47.053Z,3.90
2022-07-31T12:43:51.927Z,3.10
2022-07-31T12:45:58.504Z,3.30
2022-07-31T12:48:01.367Z,3.22
2022-07-31T12:50:04.557Z,2.63
2022-07-31T12:52:07.152Z,3.17
2022-07-31T12:54:10.137Z,2.90
2022-07-31T12:56:13.127Z,3.13
2022-07-31T12:58:15.860Z,3.00
2022-07-31T13:00:23.833Z,2.90
2022-07-31T13:02:27.068Z,2.97
2022-07-31T13:04:29.694Z,2.38
2022-07-31T13:06:32.310Z,2.53
2022-07-31T13:08:35.209Z,2.47
2022-07-31T13:10:37.869Z,2.90
2022-07-31T13:12:41.233Z,2.20
2022-07-31T13:14:43.840Z,2.30
2022-07-31T13:16:48.231Z,2.63
2022-07-31T13:18:50.877Z,2.50
2022-07-31T13:20:53.425Z,2.83
2022-07-31T13:22:56.049Z,2.77
2022-07-31T13:24:58.735Z,2.30
2022-07-31T13:27:01.606Z,2.60
2022-07-31T13:29:05.165Z,2.77
2022-07-31T13:31:07.862Z,2.60
2022-07-31T13:33:10.878Z,2.57
2022-07-31T13:35:26.364Z,2.60
2022-07-31T13:37:30.854Z,3.40
2022-07-31T13:39:33.550Z,3.30
2022-07-31T13:41:39.199Z,2.90
2022-07-31T13:44:00.129Z,3.53
2022-07-31T13:46:04.305Z,3.80
2022-07-31T13:48:09.616Z,2.93
2022-07-31T13:50:12.711Z,3.10
2022-07-31T13:52:15.378Z,2.87
2022-07-31T13:54:18.240Z,2.73
2022-07-31T13:56:39.089Z,2.30
2022-07-31T13:58:43.671Z,2.23
2022-07-31T14:00:46.413Z,2.80
2022-07-31T14:02:50.143Z,3.57
2022-07-31T14:04:53.844Z,2.73
2022-07-31T14:06:57.670Z,2.80
2022-07-31T14:09:00.921Z,2.20
2022-07-31T14:11:03.718Z,2.53
2022-07-31T14:13:06.359Z,2.90
2022-07-31T14:15:09.557Z,3.00
2022-07-31T14:17:12.129Z,3.00
2022-07-31T14:19:15.915Z,3.00
2022-07-31T14:21:18.679Z,3.00
2022-07-31T14:23:21.230Z,2.67
2022-07-31T14:25:39.056Z,3.20
2022-07-31T14:27:41.658Z,3.83
2022-07-31T14:29:44.852Z,3.30
2022-07-31T14:31:47.517Z,2.80
2022-07-31T14:33:50.249Z,2.28
2022-07-31T14:35:54.634Z,2.80
2022-07-31T14:38:02.012Z,2.60
2022-07-31T14:40:07.054Z,2.70
2022-07-31T14:42:09.792Z,3.50
2022-07-31T14:44:12.447Z,2.75
2022-07-31T14:46:15.019Z,3.30
2022-07-31T14:48:17.627Z,3.20
2022-07-31T14:50:20.371Z,3.70
2022-07-31T14:52:23.227Z,2.80
2022-07-31T14:54:26.017Z,3.30
2022-07-31T14:56:51.717Z,3.50
2022-07-31T14:58:57.562Z,3.10
2022-07-31T15:01:01.314Z,3.00
2022-07-31T15:03:04.003Z,2.83
2022-07-31T15:06:40.804Z,2.80
2022-07-31T15:07:35.318Z,3.10
2022-07-31T15:09:40.030Z,3.03
2022-07-31T15:11:58.340Z,2.92
2022-07-31T15:14:03.947Z,2.87
2022-07-31T15:16:08.956Z,3.40
2022-07-31T15:18:11.627Z,2.80
2022-07-31T15:20:14.338Z,3.00
2022-07-31T15:22:19.515Z,2.30
2022-07-31T15:24:22.322Z,3.27
2022-07-31T15:26:24.980Z,3.27
2022-07-31T15:28:27.686Z,2.53
2022-07-31T15:30:30.295Z,2.40
2022-07-31T15:32:33.846Z,2.47
2022-07-31T15:34:37.725Z,2.43
2022-07-31T15:36:40.310Z,2.78
2022-07-31T15:38:43.121Z,2.70
2022-07-31T15:40:47.374Z,3.00
2022-07-31T15:42:50.112Z,3.03
2022-07-31T15:44:52.693Z,3.00
2022-07-31T15:46:55.387Z,3.20
2022-07-31T15:48:58.019Z,3.05
2022-07-31T15:51:00.666Z,2.87
2022-07-31T15:53:03.849Z,2.60
2022-07-31T15:55:08.229Z,2.20
2022-07-31T15:57:10.881Z,2.33
2022-07-31T15:59:13.582Z,2.80
2022-07-31T16:01:16.351Z,2.90
2022-07-31T16:03:19.093Z,2.47
2022-07-31T16:05:36.832Z,2.57
2022-07-31T16:08:33.095Z,2.93
2022-07-31T16:10:15.379Z,2.30
2022-07-31T16:12:19.601Z,2.20
2022-07-31T16:14:22.210Z,2.87
2022-07-31T16:16:26.574Z,2.83
2022-07-31T16:18:29.245Z,3.23
2022-07-31T16:20:31.922Z,2.70
2022-07-31T16:22:36.167Z,2.30
2022-07-31T16:24:38.885Z,2.03
2022-07-31T16:26:41.432Z,1.90
2022-07-31T16:28:44.067Z,2.00
2022-07-31T16:30:46.783Z,1.37
2022-07-31T16:32:50.236Z,1.60
2022-07-31T16:34:55.067Z,1.10
2022-07-31T16:37:01.057Z,1.07
2022-07-31T16:39:19.506Z,1.40
2022-07-31T16:41:23.115Z,1.70
2022-07-31T16:43:50.736Z,1.50
2022-07-31T16:45:48.272Z,1.67
2022-07-31T16:47:52.359Z,1.50
2022-07-31T16:49:55.784Z,1.77
2022-07-31T16:51:58.703Z,1.23
2022-07-31T16:54:11.673Z,1.33
2022-07-31T16:56:18.587Z,1.50
2022-07-31T16:58:24.658Z,1.40
2022-07-31T17:00:27.629Z,1.73
2022-07-31T17:02:30.235Z,1.60
2022-07-31T17:04:33.972Z,1.93
2022-07-31T17:06:38.151Z,1.67
2022-07-31T17:08:40.887Z,2.50
2022-07-31T17:10:43.806Z,1.67
2022-07-31T17:12:46.394Z,2.20
2022-07-31T17:14:49.202Z,1.60
2022-07-31T17:16:53.587Z,2.40
2022-07-31T17:18:56.191Z,1.67
2022-07-31T17:20:59.815Z,1.53
2022-07-31T17:23:04.739Z,1.70
2022-07-31T17:25:11.400Z,1.43
2022-07-31T17:27:14.247Z,1.30
2022-07-31T17:29:16.901Z,1.20
2022-07-31T17:31:19.858Z,1.10
2022-07-31T17:33:22.456Z,0.93
2022-07-31T17:35:45.053Z,0.90
2022-07-31T17:37:47.674Z,1.07
2022-07-31T17:39:56.292Z,1.27
2022-07-31T17:42:00.682Z,1.10
2022-07-31T17:44:03.344Z,0.90
2022-07-31T17:46:09.533Z,1.00
2022-07-31T17:48:20.353Z,1.20
2022-07-31T17:50:23.088Z,1.40
2022-07-31T17:52:25.705Z,1.27
2022-07-31T17:54:30.738Z,1.67
2022-07-31T17:56:33.286Z,1.20
2022-07-31T17:58:36.360Z,1.43
2022-07-31T18:00:39.035Z,1.40
2022-07-31T18:02:41.817Z,2.00
2022-07-31T18:04:44.686Z,1.40
2022-07-31T18:06:49.396Z,1.60
2022-07-31T18:09:05.441Z,1.27
2022-07-31T18:11:08.330Z,0.90
2022-07-31T18:13:10.942Z,1.10
2022-07-31T18:15:14.704Z,1.00
2022-07-31T18:17:19.430Z,1.30
2022-07-31T18:19:23.814Z,1.40
2022-07-31T18:21:26.694Z,1.10
2022-07-31T18:23:32.051Z,1.30
2022-07-31T18:25:34.769Z,0.90
2022-07-31T18:27:37.515Z,0.97
2022-07-31T18:29:40.147Z,1.10
2022-07-31T18:31:44.771Z,1.00
2022-07-31T18:33:47.405Z,0.87
2022-07-31T18:35:50.319Z,1.10
2022-07-31T18:37:52.971Z,1.00
2022-07-31T18:39:57.651Z,1.30
2022-07-31T18:42:00.262Z,1.00
2022-07-31T18:44:05.042Z,1.20
2022-07-31T18:46:07.750Z,1.00
2022-07-31T18:48:10.386Z,1.03
2022-07-31T18:50:58.344Z,1.20
2022-07-31T18:52:35.599Z,1.00
2022-07-31T18:54:39.901Z,1.00
2022-07-31T18:56:42.556Z,1.00
2022-07-31T18:58:45.597Z,1.00
2022-07-31T19:00:51.643Z,1.20
2022-07-31T19:02:57.474Z,1.30
2022-07-31T19:05:00.431Z,1.30
2022-07-31T19:07:03.128Z,1.60
2022-07-31T19:09:14.737Z,2.00
2022-07-31T19:11:18.314Z,2.50
2022-07-31T19:13:21.831Z,2.20
2022-07-31T19:15:24.495Z,2.40
2022-07-31T19:17:27.062Z,2.47
2022-07-31T19:20:02.048Z,2.20
2022-07-31T19:22:05.918Z,2.53
2022-07-31T19:24:09.845Z,2.40
2022-07-31T19:26:12.865Z,1.97
2022-07-31T19:28:27.124Z,2.00
2022-07-31T19:30:30.294Z,2.50
2022-07-31T19:32:32.963Z,2.00
2022-07-31T19:34:35.628Z,2.30
2022-07-31T19:36:38.317Z,2.00
2022-07-31T19:38:44.310Z,1.63
2022-07-31T19:40:48.374Z,1.67
2022-07-31T19:42:53.226Z,1.90
2022-07-31T19:44:55.876Z,1.33
2022-07-31T19:47:00.619Z,1.73
2022-07-31T19:49:03.732Z,1.80
2022-07-31T19:51:06.406Z,1.30
2022-07-31T19:53:09.339Z,1.60
2022-07-31T19:55:15.056Z,1.60
2022-07-31T19:57:20.260Z,1.60
2022-07-31T19:59:23.163Z,1.70
2022-07-31T20:01:25.850Z,1.90
2022-07-31T20:03:28.766Z,1.90
2022-07-31T20:05:37.960Z,1.30
2022-07-31T20:07:43.368Z,1.80
2022-07-31T20:09:48.051Z,2.33
2022-07-31T20:11:50.656Z,2.97
2022-07-31T20:13:53.247Z,2.80
2022-07-31T20:15:57.032Z,2.57
2022-07-31T20:18:02.178Z,2.70
2022-07-31T20:20:15.264Z,2.33
2022-07-31T20:22:18.849Z,2.30
2022-07-31T20:24:21.742Z,2.10
2022-07-31T20:26:36.786Z,2.47
2022-07-31T20:28:44.104Z,2.30
2022-07-31T20:30:46.908Z,1.90
2022-07-31T20:32:49.978Z,1.80
2022-07-31T20:34:54.141Z,2.10
2022-07-31T20:36:58.774Z,2.08
2022-07-31T20:39:01.866Z,1.67
2022-07-31T20:41:04.489Z,2.00
2022-07-31T20:43:07.161Z,1.80
2022-07-31T20:45:11.446Z,2.10
2022-07-31T20:47:24.478Z,1.60
2022-07-31T20:49:35.587Z,1.40
2022-07-31T20:51:39.396Z,1.70
2022-07-31T20:53:44.048Z,1.33
2022-07-31T20:55:49.844Z,1.40
2022-07-31T20:57:52.733Z,1.20
2022-07-31T20:59:55.267Z,1.30
2022-07-31T21:01:57.972Z,1.40
2022-07-31T21:04:01.809Z,1.50
2022-07-31T21:06:06.614Z,1.30
2022-07-31T21:08:10.701Z,1.00
2022-07-31T21:10:13.289Z,1.10
2022-07-31T21:12:17.655Z,1.40
2022-07-31T21:14:20.718Z,1.00
2022-07-31T21:16:23.311Z,1.13
2022-07-31T21:18:25.999Z,1.30
2022-07-31T21:20:48.244Z,1.10
2022-07-31T21:22:51.248Z,1.40
2022-07-31T21:24:54.281Z,1.57
2022-07-31T21:26:59.456Z,2.23
2022-07-31T21:29:02.647Z,2.67
2022-07-31T21:31:08.051Z,3.10
2022-07-31T21:33:10.833Z,2.97
2022-07-31T21:35:14.564Z,3.20
2022-07-31T21:37:25.328Z,3.40
2022-07-31T21:39:42.055Z,3.77
2022-07-31T21:41:45.052Z,3.50
2022-07-31T21:43:58.641Z,3.37
2022-07-31T21:46:05.348Z,3.97
2022-07-31T21:48:15.409Z,4.77
2022-07-31T21:50:28.860Z,5.10
2022-07-31T21:52:32.120Z,4.37
2022-07-31T21:54:35.267Z,3.87
2022-07-31T21:56:37.872Z,3.70
2022-07-31T21:58:40.491Z,5.20
2022-07-31T22:00:44.187Z,4.20
2022-07-31T22:02:47.189Z,4.50
2022-07-31T22:05:12.407Z,5.30
2022-07-31T22:07:33.587Z,5.30
2022-07-31T22:09:36.200Z,6.20
2022-07-31T22:11:38.883Z,4.60
2022-07-31T22:13:41.411Z,4.63
2022-07-31T22:15:51.509Z,4.30
2022-07-31T22:18:03.524Z,5.27
2022-07-31T22:20:08.677Z,4.50
2022-07-31T22:22:11.902Z,4.17
2022-07-31T22:24:14.602Z,4.47
2022-07-31T22:26:17.690Z,4.57
2022-07-31T22:28:22.411Z,4.43
2022-07-31T22:30:27.961Z,4.60
2022-07-31T22:32:32.126Z,5.00
2022-07-31T22:34:37.143Z,5.10
2022-07-31T22:36:40.453Z,4.97
2022-07-31T22:38:44.926Z,4.67
2022-07-31T22:40:47.569Z,5.43
2022-07-31T22:42:57.490Z,4.70
2022-07-31T22:45:00.967Z,5.33
2022-07-31T22:47:03.813Z,4.90
2022-07-31T22:49:07.463Z,4.90
2022-07-31T22:51:14.447Z,5.30
2022-07-31T22:53:17.745Z,5.50
2022-07-31T22:55:20.375Z,5.10
2022-07-31T22:57:24.127Z,5.00
2022-07-31T22:59:26.690Z,5.70
2022-07-31T23:01:29.318Z,4.88
2022-07-31T23:03:31.920Z,5.60
2022-07-31T23:06:03.524Z,5.17
2022-07-31T23:07:57.034Z,5.20
2022-07-31T23:09:59.640Z,5.20
2022-07-31T23:12:03.662Z,5.90
2022-07-31T23:14:06.531Z,5.10
2022-07-31T23:16:09.178Z,5.57
2022-07-31T23:18:11.971Z,5.20
2022-07-31T23:20:14.744Z,4.93
2022-07-31T23:22:17.461Z,4.77
2022-07-31T23:24:20.564Z,5.70
2022-07-31T23:26:25.736Z,5.80
2022-07-31T23:28:28.304Z,6.23
2022-07-31T23:30:30.895Z,6.10
2022-07-31T23:32:33.542Z,5.40
2022-07-31T23:34:36.716Z,5.10
2022-07-31T23:36:39.346Z,4.43
2022-07-31T23:38:42.945Z,4.53
2022-07-31T23:40:45.562Z,3.83
2022-07-31T23:42:48.766Z,4.00
2022-07-31T23:44:51.513Z,4.43
2022-07-31T23:46:54.141Z,4.77
2022-07-31T23:48:57.301Z,4.30
2022-07-31T23:51:00.022Z,4.80
2022-07-31T23:53:02.647Z,4.67
2022-07-31T23:55:05.873Z,5.10
2022-07-31T23:57:08.437Z,5.70
2022-07-31T23:59:11.107Z,5.50
